sensor_id;sensor_type;location;lat;lon;timestamp;temperature;humidity
8715;DHT22;4394;51.208;8.904;2022-12-07T00:02:28;3.70;99.90
8715;DHT22;4394;51.208;8.904;2022-12-07T00:05:17;3.70;99.90
8715;DHT22;4394;51.208;8.904;2022-12-07T00:08:06;3.70;99.90
8715;DHT22;4394;51.208;8.904;2022-12-07T00:10:55;3.80;99.90
8715;DHT22;4394;51.208;8.904;2022-12-07T00:13:43;3.80;99.90
8715;DHT22;4394;51.208;8.904;2022-12-07T00:16:32;3.80;99.90
8715;DHT22;4394;51.208;8.904;2022-12-07T00:19:20;3.80;99.90
8715;DHT22;4394;51.208;8.904;2022-12-07T00:22:08;3.70;99.90
8715;DHT22;4394;51.208;8.904;2022-12-07T00:24:58;3.80;99.90
8715;DHT22;4394;51.208;8.904;2022-12-07T00:27:46;3.80;99.90
8715;DHT22;4394;51.208;8.904;2022-12-07T00:30:34;3.80;99.90
8715;DHT22;4394;51.208;8.904;2022-12-07T00:33:22;3.80;99.90
8715;DHT22;4394;51.208;8.904;2022-12-07T00:36:12;3.70;99.90
8715;DHT22;4394;51.208;8.904;2022-12-07T00:39:00;3.70;99.90
8715;DHT22;4394;51.208;8.904;2022-12-07T00:41:50;3.80;99.90
8715;DHT22;4394;51.208;8.904;2022-12-07T00:44:38;3.80;99.90
8715;DHT22;4394;51.208;8.904;2022-12-07T00:47:26;3.80;99.90
8715;DHT22;4394;51.208;8.904;2022-12-07T00:50:14;3.80;99.90
8715;DHT22;4394;51.208;8.904;2022-12-07T00:53:02;3.80;99.90
8715;DHT22;4394;51.208;8.904;2022-12-07T00:55:51;3.80;99.90
8715;DHT22;4394;51.208;8.904;2022-12-07T00:58:41;3.90;99.90
8715;DHT22;4394;51.208;8.904;2022-12-07T01:01:30;3.90;99.90
8715;DHT22;4394;51.208;8.904;2022-12-07T01:04:19;3.90;99.90
8715;DHT22;4394;51.208;8.904;2022-12-07T01:07:07;3.90;99.90
8715;DHT22;4394;51.208;8.904;2022-12-07T01:09:55;3.90;99.90
8715;DHT22;4394;51.208;8.904;2022-12-07T01:12:43;3.90;99.90
8715;DHT22;4394;51.208;8.904;2022-12-07T01:15:33;3.90;99.90
8715;DHT22;4394;51.208;8.904;2022-12-07T01:18:21;3.90;99.90
8715;DHT22;4394;51.208;8.904;2022-12-07T01:21:09;3.90;99.90
8715;DHT22;4394;51.208;8.904;2022-12-07T01:23:58;4.00;99.90
8715;DHT22;4394;51.208;8.904;2022-12-07T01:26:48;4.00;99.90
8715;DHT22;4394;51.208;8.904;2022-12-07T01:29:36;4.00;99.90
8715;DHT22;4394;51.208;8.904;2022-12-07T01:32:26;4.00;99.90
8715;DHT22;4394;51.208;8.904;2022-12-07T01:35:14;4.00;99.90
8715;DHT22;4394;51.208;8.904;2022-12-07T01:38:02;4.00;99.90
8715;DHT22;4394;51.208;8.904;2022-12-07T01:40:53;4.00;99.90
8715;DHT22;4394;51.208;8.904;2022-12-07T01:46:45;4.00;99.90
8715;DHT22;4394;51.208;8.904;2022-12-07T01:49:35;4.10;99.90
8715;DHT22;4394;51.208;8.904;2022-12-07T01:52:26;4.10;99.90
8715;DHT22;4394;51.208;8.904;2022-12-07T01:55:15;4.00;99.90
8715;DHT22;4394;51.208;8.904;2022-12-07T01:58:04;4.10;99.90
8715;DHT22;4394;51.208;8.904;2022-12-07T02:00:52;4.10;99.90
8715;DHT22;4394;51.208;8.904;2022-12-07T02:03:41;4.10;99.90
8715;DHT22;4394;51.208;8.904;2022-12-07T02:06:31;4.10;99.90
8715;DHT22;4394;51.208;8.904;2022-12-07T02:09:19;4.10;99.90
8715;DHT22;4394;51.208;8.904;2022-12-07T02:12:07;4.10;99.90
8715;DHT22;4394;51.208;8.904;2022-12-07T02:14:55;4.10;99.90
8715;DHT22;4394;51.208;8.904;2022-12-07T02:17:45;4.10;99.90
8715;DHT22;4394;51.208;8.904;2022-12-07T02:20:35;4.10;99.90
8715;DHT22;4394;51.208;8.904;2022-12-07T02:29:44;4.10;99.90
8715;DHT22;4394;51.208;8.904;2022-12-07T02:32:37;4.20;99.90
8715;DHT22;4394;51.208;8.904;2022-12-07T02:35:28;4.10;99.90
8715;DHT22;4394;51.208;8.904;2022-12-07T02:38:19;4.10;99.90
8715;DHT22;4394;51.208;8.904;2022-12-07T02:41:09;4.10;99.90
8715;DHT22;4394;51.208;8.904;2022-12-07T02:44:01;4.10;99.90
8715;DHT22;4394;51.208;8.904;2022-12-07T02:46:52;4.10;99.90
8715;DHT22;4394;51.208;8.904;2022-12-07T02:49:41;4.10;99.90
8715;DHT22;4394;51.208;8.904;2022-12-07T02:52:29;4.10;99.90
8715;DHT22;4394;51.208;8.904;2022-12-07T02:55:18;4.10;99.90
8715;DHT22;4394;51.208;8.904;2022-12-07T02:58:20;4.20;99.90
8715;DHT22;4394;51.208;8.904;2022-12-07T03:01:13;4.20;99.90
8715;DHT22;4394;51.208;8.904;2022-12-07T03:04:07;4.20;99.90
8715;DHT22;4394;51.208;8.904;2022-12-07T03:07:00;4.20;99.90
8715;DHT22;4394;51.208;8.904;2022-12-07T03:09:50;4.20;99.90
8715;DHT22;4394;51.208;8.904;2022-12-07T03:12:42;4.20;99.90
8715;DHT22;4394;51.208;8.904;2022-12-07T03:15:32;4.20;99.90
8715;DHT22;4394;51.208;8.904;2022-12-07T03:18:22;4.20;99.90
8715;DHT22;4394;51.208;8.904;2022-12-07T03:21:13;4.20;99.90
8715;DHT22;4394;51.208;8.904;2022-12-07T03:24:03;4.30;99.90
8715;DHT22;4394;51.208;8.904;2022-12-07T03:26:52;4.30;99.90
8715;DHT22;4394;51.208;8.904;2022-12-07T03:29:42;4.20;99.90
8715;DHT22;4394;51.208;8.904;2022-12-07T03:32:33;4.20;99.90
8715;DHT22;4394;51.208;8.904;2022-12-07T03:35:22;4.30;99.90
8715;DHT22;4394;51.208;8.904;2022-12-07T03:38:15;4.30;99.90
8715;DHT22;4394;51.208;8.904;2022-12-07T03:41:05;4.30;99.90
8715;DHT22;4394;51.208;8.904;2022-12-07T03:43:55;4.20;99.90
8715;DHT22;4394;51.208;8.904;2022-12-07T03:46:44;4.30;99.90
8715;DHT22;4394;51.208;8.904;2022-12-07T03:49:37;4.30;99.90
8715;DHT22;4394;51.208;8.904;2022-12-07T03:52:28;4.30;99.90
8715;DHT22;4394;51.208;8.904;2022-12-07T03:55:20;4.30;99.90
8715;DHT22;4394;51.208;8.904;2022-12-07T03:58:12;4.30;99.90
8715;DHT22;4394;51.208;8.904;2022-12-07T04:01:02;4.30;99.90
8715;DHT22;4394;51.208;8.904;2022-12-07T04:03:50;4.30;99.90
8715;DHT22;4394;51.208;8.904;2022-12-07T04:06:38;4.40;99.90
8715;DHT22;4394;51.208;8.904;2022-12-07T04:09:26;4.40;99.90
8715;DHT22;4394;51.208;8.904;2022-12-07T04:12:16;4.30;99.90
8715;DHT22;4394;51.208;8.904;2022-12-07T04:15:04;4.30;99.90
8715;DHT22;4394;51.208;8.904;2022-12-07T04:17:53;4.30;99.90
8715;DHT22;4394;51.208;8.904;2022-12-07T04:20:41;4.30;99.90
8715;DHT22;4394;51.208;8.904;2022-12-07T04:23:30;4.30;99.90
8715;DHT22;4394;51.208;8.904;2022-12-07T04:26:19;4.20;99.90
8715;DHT22;4394;51.208;8.904;2022-12-07T04:29:08;4.10;99.90
8715;DHT22;4394;51.208;8.904;2022-12-07T04:31:57;4.10;99.90
8715;DHT22;4394;51.208;8.904;2022-12-07T04:34:45;4.10;99.90
8715;DHT22;4394;51.208;8.904;2022-12-07T04:37:39;4.10;99.90
8715;DHT22;4394;51.208;8.904;2022-12-07T04:40:28;4.10;99.90
8715;DHT22;4394;51.208;8.904;2022-12-07T04:43:17;4.10;99.90
8715;DHT22;4394;51.208;8.904;2022-12-07T04:46:06;4.10;99.90
8715;DHT22;4394;51.208;8.904;2022-12-07T04:48:55;4.10;99.90
8715;DHT22;4394;51.208;8.904;2022-12-07T04:51:43;4.10;99.90
8715;DHT22;4394;51.208;8.904;2022-12-07T04:54:32;4.10;99.90
8715;DHT22;4394;51.208;8.904;2022-12-07T04:57:20;4.10;99.90
8715;DHT22;4394;51.208;8.904;2022-12-07T05:00:09;4.00;99.90
8715;DHT22;4394;51.208;8.904;2022-12-07T05:03:00;3.90;99.90
8715;DHT22;4394;51.208;8.904;2022-12-07T05:05:49;3.90;99.90
8715;DHT22;4394;51.208;8.904;2022-12-07T05:08:38;3.90;99.90
8715;DHT22;4394;51.208;8.904;2022-12-07T05:11:26;3.80;99.90
8715;DHT22;4394;51.208;8.904;2022-12-07T05:14:26;3.80;99.90
8715;DHT22;4394;51.208;8.904;2022-12-07T05:17:14;3.90;99.90
8715;DHT22;4394;51.208;8.904;2022-12-07T05:20:05;3.90;99.90
8715;DHT22;4394;51.208;8.904;2022-12-07T05:22:55;3.90;99.90
8715;DHT22;4394;51.208;8.904;2022-12-07T05:25:46;3.90;99.90
8715;DHT22;4394;51.208;8.904;2022-12-07T05:28:39;3.90;99.90
8715;DHT22;4394;51.208;8.904;2022-12-07T05:31:28;3.90;99.90
8715;DHT22;4394;51.208;8.904;2022-12-07T05:34:16;3.90;99.90
8715;DHT22;4394;51.208;8.904;2022-12-07T05:37:05;3.80;99.90
8715;DHT22;4394;51.208;8.904;2022-12-07T05:39:54;3.80;99.90
8715;DHT22;4394;51.208;8.904;2022-12-07T05:42:43;3.70;99.90
8715;DHT22;4394;51.208;8.904;2022-12-07T05:45:32;3.70;99.90
8715;DHT22;4394;51.208;8.904;2022-12-07T05:48:24;3.80;99.90
8715;DHT22;4394;51.208;8.904;2022-12-07T05:51:13;3.80;99.90
8715;DHT22;4394;51.208;8.904;2022-12-07T05:54:06;3.80;99.90
8715;DHT22;4394;51.208;8.904;2022-12-07T05:56:56;3.80;99.90
8715;DHT22;4394;51.208;8.904;2022-12-07T05:59:45;3.70;99.90
8715;DHT22;4394;51.208;8.904;2022-12-07T06:02:32;3.80;99.90
8715;DHT22;4394;51.208;8.904;2022-12-07T06:05:22;3.80;99.90
8715;DHT22;4394;51.208;8.904;2022-12-07T06:08:11;3.70;99.90
8715;DHT22;4394;51.208;8.904;2022-12-07T06:11:03;3.70;99.90
8715;DHT22;4394;51.208;8.904;2022-12-07T06:14:14;3.60;99.90
8715;DHT22;4394;51.208;8.904;2022-12-07T06:17:04;3.60;99.90
8715;DHT22;4394;51.208;8.904;2022-12-07T06:19:54;3.60;99.90
8715;DHT22;4394;51.208;8.904;2022-12-07T06:22:45;3.60;99.90
8715;DHT22;4394;51.208;8.904;2022-12-07T06:25:33;3.60;99.90
8715;DHT22;4394;51.208;8.904;2022-12-07T06:28:23;3.70;99.90
8715;DHT22;4394;51.208;8.904;2022-12-07T06:31:12;3.60;99.90
8715;DHT22;4394;51.208;8.904;2022-12-07T06:34:00;3.70;99.90
8715;DHT22;4394;51.208;8.904;2022-12-07T06:36:49;3.70;99.90
8715;DHT22;4394;51.208;8.904;2022-12-07T06:39:40;3.70;99.90
8715;DHT22;4394;51.208;8.904;2022-12-07T06:42:28;3.70;99.90
8715;DHT22;4394;51.208;8.904;2022-12-07T06:45:18;3.70;99.90
8715;DHT22;4394;51.208;8.904;2022-12-07T06:48:07;3.70;99.90
8715;DHT22;4394;51.208;8.904;2022-12-07T06:50:55;3.70;99.90
8715;DHT22;4394;51.208;8.904;2022-12-07T06:53:43;3.70;99.90
8715;DHT22;4394;51.208;8.904;2022-12-07T06:56:32;3.60;99.90
8715;DHT22;4394;51.208;8.904;2022-12-07T06:59:20;3.60;99.90
8715;DHT22;4394;51.208;8.904;2022-12-07T07:02:09;3.50;99.90
8715;DHT22;4394;51.208;8.904;2022-12-07T07:04:57;3.50;99.90
8715;DHT22;4394;51.208;8.904;2022-12-07T07:07:46;3.50;99.90
8715;DHT22;4394;51.208;8.904;2022-12-07T07:10:54;3.50;99.90
8715;DHT22;4394;51.208;8.904;2022-12-07T07:13:43;3.50;99.90
8715;DHT22;4394;51.208;8.904;2022-12-07T07:16:31;3.40;99.90
8715;DHT22;4394;51.208;8.904;2022-12-07T07:19:21;3.40;99.90
8715;DHT22;4394;51.208;8.904;2022-12-07T07:22:09;3.40;99.90
8715;DHT22;4394;51.208;8.904;2022-12-07T07:24:57;3.30;99.90
8715;DHT22;4394;51.208;8.904;2022-12-07T07:27:46;3.40;99.90
8715;DHT22;4394;51.208;8.904;2022-12-07T07:30:34;3.40;99.90
8715;DHT22;4394;51.208;8.904;2022-12-07T07:33:22;3.50;99.90
8715;DHT22;4394;51.208;8.904;2022-12-07T07:36:11;3.50;99.90
8715;DHT22;4394;51.208;8.904;2022-12-07T07:39:00;3.60;99.90
8715;DHT22;4394;51.208;8.904;2022-12-07T07:41:48;3.50;99.90
8715;DHT22;4394;51.208;8.904;2022-12-07T07:44:36;3.50;99.90
8715;DHT22;4394;51.208;8.904;2022-12-07T07:47:24;3.50;99.90
8715;DHT22;4394;51.208;8.904;2022-12-07T07:50:13;3.50;99.90
8715;DHT22;4394;51.208;8.904;2022-12-07T07:53:02;3.40;99.90
8715;DHT22;4394;51.208;8.904;2022-12-07T07:55:51;3.40;99.90
8715;DHT22;4394;51.208;8.904;2022-12-07T07:58:40;3.40;99.90
8715;DHT22;4394;51.208;8.904;2022-12-07T08:01:28;3.40;99.90
8715;DHT22;4394;51.208;8.904;2022-12-07T08:04:16;3.50;99.90
8715;DHT22;4394;51.208;8.904;2022-12-07T08:07:04;3.50;99.90
8715;DHT22;4394;51.208;8.904;2022-12-07T08:09:54;3.50;99.90
8715;DHT22;4394;51.208;8.904;2022-12-07T08:12:42;3.50;99.90
8715;DHT22;4394;51.208;8.904;2022-12-07T08:15:45;3.50;99.90
8715;DHT22;4394;51.208;8.904;2022-12-07T08:18:34;3.60;99.90
8715;DHT22;4394;51.208;8.904;2022-12-07T08:21:24;3.60;99.90
8715;DHT22;4394;51.208;8.904;2022-12-07T08:24:13;3.70;99.90
8715;DHT22;4394;51.208;8.904;2022-12-07T08:27:03;3.70;99.90
8715;DHT22;4394;51.208;8.904;2022-12-07T08:29:51;3.70;99.90
8715;DHT22;4394;51.208;8.904;2022-12-07T08:32:39;3.70;99.90
8715;DHT22;4394;51.208;8.904;2022-12-07T08:35:27;3.60;99.90
8715;DHT22;4394;51.208;8.904;2022-12-07T08:38:15;3.60;99.90
8715;DHT22;4394;51.208;8.904;2022-12-07T08:41:03;3.60;99.90
8715;DHT22;4394;51.208;8.904;2022-12-07T08:43:53;3.50;99.90
8715;DHT22;4394;51.208;8.904;2022-12-07T08:46:41;3.60;99.90
8715;DHT22;4394;51.208;8.904;2022-12-07T08:49:33;3.60;99.90
8715;DHT22;4394;51.208;8.904;2022-12-07T08:52:24;3.50;99.90
8715;DHT22;4394;51.208;8.904;2022-12-07T08:55:12;3.50;99.90
8715;DHT22;4394;51.208;8.904;2022-12-07T08:58:02;3.50;99.90
8715;DHT22;4394;51.208;8.904;2022-12-07T09:00:52;3.50;99.90
8715;DHT22;4394;51.208;8.904;2022-12-07T09:03:40;3.50;99.90
8715;DHT22;4394;51.208;8.904;2022-12-07T09:06:29;3.40;99.90
8715;DHT22;4394;51.208;8.904;2022-12-07T09:09:17;3.50;99.90
8715;DHT22;4394;51.208;8.904;2022-12-07T09:12:05;3.40;99.90
8715;DHT22;4394;51.208;8.904;2022-12-07T09:14:53;3.40;99.90
8715;DHT22;4394;51.208;8.904;2022-12-07T09:17:43;3.40;99.90
8715;DHT22;4394;51.208;8.904;2022-12-07T09:20:31;3.50;99.90
8715;DHT22;4394;51.208;8.904;2022-12-07T09:23:19;3.50;99.90
8715;DHT22;4394;51.208;8.904;2022-12-07T09:26:07;3.70;99.90
8715;DHT22;4394;51.208;8.904;2022-12-07T09:28:56;3.60;99.90
8715;DHT22;4394;51.208;8.904;2022-12-07T09:31:45;3.70;99.90
8715;DHT22;4394;51.208;8.904;2022-12-07T09:34:34;3.80;99.90
8715;DHT22;4394;51.208;8.904;2022-12-07T09:37:23;3.90;99.90
8715;DHT22;4394;51.208;8.904;2022-12-07T09:40:11;4.00;99.90
8715;DHT22;4394;51.208;8.904;2022-12-07T09:42:59;4.10;99.90
8715;DHT22;4394;51.208;8.904;2022-12-07T09:45:48;4.20;99.90
8715;DHT22;4394;51.208;8.904;2022-12-07T09:48:37;4.20;99.90
8715;DHT22;4394;51.208;8.904;2022-12-07T09:51:28;4.40;99.90
8715;DHT22;4394;51.208;8.904;2022-12-07T09:54:16;4.50;99.90
8715;DHT22;4394;51.208;8.904;2022-12-07T09:57:05;4.60;99.90
8715;DHT22;4394;51.208;8.904;2022-12-07T09:59:53;4.60;99.90
8715;DHT22;4394;51.208;8.904;2022-12-07T10:02:42;4.60;99.90
8715;DHT22;4394;51.208;8.904;2022-12-07T10:05:32;4.60;99.90
8715;DHT22;4394;51.208;8.904;2022-12-07T10:08:24;4.50;99.90
8715;DHT22;4394;51.208;8.904;2022-12-07T10:11:13;4.60;99.90
8715;DHT22;4394;51.208;8.904;2022-12-07T10:14:10;4.60;99.90
8715;DHT22;4394;51.208;8.904;2022-12-07T10:16:58;4.70;99.90
8715;DHT22;4394;51.208;8.904;2022-12-07T10:19:47;4.60;99.90
8715;DHT22;4394;51.208;8.904;2022-12-07T10:22:35;4.60;99.90
8715;DHT22;4394;51.208;8.904;2022-12-07T10:25:26;4.60;99.90
8715;DHT22;4394;51.208;8.904;2022-12-07T10:28:15;4.60;99.90
8715;DHT22;4394;51.208;8.904;2022-12-07T10:31:15;4.50;99.90
8715;DHT22;4394;51.208;8.904;2022-12-07T10:34:12;4.50;99.90
8715;DHT22;4394;51.208;8.904;2022-12-07T10:37:16;4.50;99.90
8715;DHT22;4394;51.208;8.904;2022-12-07T10:40:18;4.40;99.90
8715;DHT22;4394;51.208;8.904;2022-12-07T10:43:18;4.40;99.90
8715;DHT22;4394;51.208;8.904;2022-12-07T10:46:18;4.40;99.90
8715;DHT22;4394;51.208;8.904;2022-12-07T10:49:11;4.40;99.90
8715;DHT22;4394;51.208;8.904;2022-12-07T10:52:04;4.50;99.90
8715;DHT22;4394;51.208;8.904;2022-12-07T10:54:58;4.70;99.90
8715;DHT22;4394;51.208;8.904;2022-12-07T10:58:02;4.80;99.90
8715;DHT22;4394;51.208;8.904;2022-12-07T11:00:54;4.70;99.90
8715;DHT22;4394;51.208;8.904;2022-12-07T11:03:52;4.80;99.90
8715;DHT22;4394;51.208;8.904;2022-12-07T11:06:44;4.80;99.90
8715;DHT22;4394;51.208;8.904;2022-12-07T11:09:42;4.80;99.90
8715;DHT22;4394;51.208;8.904;2022-12-07T11:12:58;4.80;99.90
8715;DHT22;4394;51.208;8.904;2022-12-07T11:16:01;4.80;99.90
8715;DHT22;4394;51.208;8.904;2022-12-07T11:21:56;4.70;99.90
8715;DHT22;4394;51.208;8.904;2022-12-07T11:24:46;4.80;99.90
8715;DHT22;4394;51.208;8.904;2022-12-07T11:27:37;4.90;99.90
8715;DHT22;4394;51.208;8.904;2022-12-07T11:30:26;5.00;99.90
8715;DHT22;4394;51.208;8.904;2022-12-07T11:33:19;5.00;99.90
8715;DHT22;4394;51.208;8.904;2022-12-07T11:36:14;4.90;99.90
8715;DHT22;4394;51.208;8.904;2022-12-07T11:39:09;5.00;99.90
8715;DHT22;4394;51.208;8.904;2022-12-07T11:42:00;5.00;99.90
8715;DHT22;4394;51.208;8.904;2022-12-07T11:44:52;5.00;99.90
8715;DHT22;4394;51.208;8.904;2022-12-07T11:47:43;5.00;99.90
8715;DHT22;4394;51.208;8.904;2022-12-07T11:50:36;5.00;99.90
8715;DHT22;4394;51.208;8.904;2022-12-07T11:53:25;5.00;99.90
8715;DHT22;4394;51.208;8.904;2022-12-07T11:56:19;5.00;99.90
8715;DHT22;4394;51.208;8.904;2022-12-07T11:59:09;5.00;99.90
8715;DHT22;4394;51.208;8.904;2022-12-07T12:02:07;4.90;99.90
8715;DHT22;4394;51.208;8.904;2022-12-07T12:05:02;4.80;99.90
8715;DHT22;4394;51.208;8.904;2022-12-07T12:07:59;4.80;99.90
8715;DHT22;4394;51.208;8.904;2022-12-07T12:11:14;4.90;99.90
8715;DHT22;4394;51.208;8.904;2022-12-07T12:14:14;4.80;99.90
8715;DHT22;4394;51.208;8.904;2022-12-07T12:17:40;4.80;99.90
8715;DHT22;4394;51.208;8.904;2022-12-07T12:20:32;4.90;99.90
8715;DHT22;4394;51.208;8.904;2022-12-07T12:23:27;4.90;99.90
8715;DHT22;4394;51.208;8.904;2022-12-07T12:26:19;5.00;99.90
8715;DHT22;4394;51.208;8.904;2022-12-07T12:29:18;5.00;99.90
8715;DHT22;4394;51.208;8.904;2022-12-07T12:32:11;4.90;99.90
8715;DHT22;4394;51.208;8.904;2022-12-07T12:35:03;5.00;99.90
8715;DHT22;4394;51.208;8.904;2022-12-07T12:38:24;4.90;99.90
8715;DHT22;4394;51.208;8.904;2022-12-07T12:41:23;5.00;99.90
8715;DHT22;4394;51.208;8.904;2022-12-07T12:47:53;5.10;99.90
8715;DHT22;4394;51.208;8.904;2022-12-07T12:50:41;5.20;99.90
8715;DHT22;4394;51.208;8.904;2022-12-07T12:53:29;5.10;99.90
8715;DHT22;4394;51.208;8.904;2022-12-07T12:56:23;5.10;99.90
8715;DHT22;4394;51.208;8.904;2022-12-07T13:02:20;5.20;99.90
8715;DHT22;4394;51.208;8.904;2022-12-07T13:05:16;5.20;99.90
8715;DHT22;4394;51.208;8.904;2022-12-07T13:08:10;5.20;99.90
8715;DHT22;4394;51.208;8.904;2022-12-07T13:11:15;5.20;99.90
8715;DHT22;4394;51.208;8.904;2022-12-07T13:20:50;4.80;99.90
8715;DHT22;4394;51.208;8.904;2022-12-07T13:23:51;4.80;99.90
8715;DHT22;4394;51.208;8.904;2022-12-07T13:26:42;4.70;99.90
8715;DHT22;4394;51.208;8.904;2022-12-07T13:29:36;4.60;99.90
8715;DHT22;4394;51.208;8.904;2022-12-07T13:32:25;4.50;99.90
8715;DHT22;4394;51.208;8.904;2022-12-07T13:35:30;4.50;99.90
8715;DHT22;4394;51.208;8.904;2022-12-07T13:38:24;4.50;99.90
8715;DHT22;4394;51.208;8.904;2022-12-07T13:41:14;4.40;99.90
8715;DHT22;4394;51.208;8.904;2022-12-07T13:44:04;4.40;99.90
8715;DHT22;4394;51.208;8.904;2022-12-07T13:46:58;4.40;99.90
8715;DHT22;4394;51.208;8.904;2022-12-07T13:49:48;4.40;99.90
8715;DHT22;4394;51.208;8.904;2022-12-07T13:52:43;4.40;99.90
8715;DHT22;4394;51.208;8.904;2022-12-07T13:55:32;4.40;99.90
8715;DHT22;4394;51.208;8.904;2022-12-07T13:58:21;4.50;99.90
8715;DHT22;4394;51.208;8.904;2022-12-07T14:01:09;4.40;99.90
8715;DHT22;4394;51.208;8.904;2022-12-07T14:07:01;4.40;99.90
8715;DHT22;4394;51.208;8.904;2022-12-07T14:09:59;4.40;99.90
8715;DHT22;4394;51.208;8.904;2022-12-07T14:12:49;4.50;99.90
8715;DHT22;4394;51.208;8.904;2022-12-07T14:15:37;4.40;99.90
8715;DHT22;4394;51.208;8.904;2022-12-07T14:18:26;4.50;99.90
8715;DHT22;4394;51.208;8.904;2022-12-07T14:21:15;4.60;99.90
8715;DHT22;4394;51.208;8.904;2022-12-07T14:27:17;4.60;99.90
8715;DHT22;4394;51.208;8.904;2022-12-07T14:30:16;4.70;99.90
8715;DHT22;4394;51.208;8.904;2022-12-07T14:33:04;4.70;99.90
8715;DHT22;4394;51.208;8.904;2022-12-07T14:35:54;4.60;99.90
8715;DHT22;4394;51.208;8.904;2022-12-07T14:38:45;4.60;99.90
8715;DHT22;4394;51.208;8.904;2022-12-07T14:41:35;4.50;99.90
8715;DHT22;4394;51.208;8.904;2022-12-07T14:44:38;4.40;99.90
8715;DHT22;4394;51.208;8.904;2022-12-07T14:47:29;4.40;99.90
8715;DHT22;4394;51.208;8.904;2022-12-07T14:50:37;4.30;99.90
8715;DHT22;4394;51.208;8.904;2022-12-07T14:53:47;4.30;99.90
8715;DHT22;4394;51.208;8.904;2022-12-07T14:56:43;4.30;99.90
8715;DHT22;4394;51.208;8.904;2022-12-07T14:59:32;4.30;99.90
8715;DHT22;4394;51.208;8.904;2022-12-07T15:02:20;4.30;99.90
8715;DHT22;4394;51.208;8.904;2022-12-07T15:05:10;4.30;99.90
8715;DHT22;4394;51.208;8.904;2022-12-07T15:08:02;4.20;99.90
8715;DHT22;4394;51.208;8.904;2022-12-07T15:10:51;4.20;99.90
8715;DHT22;4394;51.208;8.904;2022-12-07T15:13:39;4.20;99.90
8715;DHT22;4394;51.208;8.904;2022-12-07T15:16:45;4.20;99.90
8715;DHT22;4394;51.208;8.904;2022-12-07T15:19:53;4.20;99.90
8715;DHT22;4394;51.208;8.904;2022-12-07T15:22:43;4.20;99.90
8715;DHT22;4394;51.208;8.904;2022-12-07T15:25:31;4.20;99.90
8715;DHT22;4394;51.208;8.904;2022-12-07T15:28:19;4.10;99.90
8715;DHT22;4394;51.208;8.904;2022-12-07T15:31:10;4.20;99.90
8715;DHT22;4394;51.208;8.904;2022-12-07T15:34:18;4.30;99.90
8715;DHT22;4394;51.208;8.904;2022-12-07T15:37:07;4.30;99.90
8715;DHT22;4394;51.208;8.904;2022-12-07T15:39:57;4.30;99.90
8715;DHT22;4394;51.208;8.904;2022-12-07T15:42:52;4.20;99.90
8715;DHT22;4394;51.208;8.904;2022-12-07T15:45:41;4.20;99.90
8715;DHT22;4394;51.208;8.904;2022-12-07T15:48:28;4.20;99.90
8715;DHT22;4394;51.208;8.904;2022-12-07T15:51:16;4.20;99.90
8715;DHT22;4394;51.208;8.904;2022-12-07T15:54:16;4.10;99.90
8715;DHT22;4394;51.208;8.904;2022-12-07T15:57:06;4.10;99.90
8715;DHT22;4394;51.208;8.904;2022-12-07T15:59:55;4.10;99.90
8715;DHT22;4394;51.208;8.904;2022-12-07T16:02:43;4.10;99.90
8715;DHT22;4394;51.208;8.904;2022-12-07T16:05:31;4.00;99.90
8715;DHT22;4394;51.208;8.904;2022-12-07T16:08:20;4.00;99.90
8715;DHT22;4394;51.208;8.904;2022-12-07T16:11:08;4.00;99.90
8715;DHT22;4394;51.208;8.904;2022-12-07T16:13:58;4.00;99.90
8715;DHT22;4394;51.208;8.904;2022-12-07T16:16:46;4.00;99.90
8715;DHT22;4394;51.208;8.904;2022-12-07T16:19:35;4.00;99.90
8715;DHT22;4394;51.208;8.904;2022-12-07T16:22:23;3.90;99.90
8715;DHT22;4394;51.208;8.904;2022-12-07T16:25:12;4.00;99.90
8715;DHT22;4394;51.208;8.904;2022-12-07T16:28:00;3.90;99.90
8715;DHT22;4394;51.208;8.904;2022-12-07T16:30:50;3.90;99.90
8715;DHT22;4394;51.208;8.904;2022-12-07T16:33:47;3.90;99.90
8715;DHT22;4394;51.208;8.904;2022-12-07T16:36:36;3.90;99.90
8715;DHT22;4394;51.208;8.904;2022-12-07T16:39:45;4.00;99.90
8715;DHT22;4394;51.208;8.904;2022-12-07T16:42:33;4.00;99.90
8715;DHT22;4394;51.208;8.904;2022-12-07T16:45:22;4.00;99.90
8715;DHT22;4394;51.208;8.904;2022-12-07T16:48:11;4.00;99.90
8715;DHT22;4394;51.208;8.904;2022-12-07T16:51:01;4.00;99.90
8715;DHT22;4394;51.208;8.904;2022-12-07T16:53:51;4.00;99.90
8715;DHT22;4394;51.208;8.904;2022-12-07T16:56:40;4.00;99.90
8715;DHT22;4394;51.208;8.904;2022-12-07T16:59:28;3.90;99.90
8715;DHT22;4394;51.208;8.904;2022-12-07T17:02:16;4.00;99.90
8715;DHT22;4394;51.208;8.904;2022-12-07T17:05:06;3.90;99.90
8715;DHT22;4394;51.208;8.904;2022-12-07T17:07:56;4.00;99.90
8715;DHT22;4394;51.208;8.904;2022-12-07T17:10:44;3.90;99.90
8715;DHT22;4394;51.208;8.904;2022-12-07T17:13:33;3.90;99.90
8715;DHT22;4394;51.208;8.904;2022-12-07T17:16:39;3.90;99.90
8715;DHT22;4394;51.208;8.904;2022-12-07T17:19:27;3.80;99.90
8715;DHT22;4394;51.208;8.904;2022-12-07T17:22:17;3.80;99.90
8715;DHT22;4394;51.208;8.904;2022-12-07T17:25:05;3.80;99.90
8715;DHT22;4394;51.208;8.904;2022-12-07T17:27:53;3.70;99.90
8715;DHT22;4394;51.208;8.904;2022-12-07T17:30:42;3.70;99.90
8715;DHT22;4394;51.208;8.904;2022-12-07T17:33:31;3.70;99.90
8715;DHT22;4394;51.208;8.904;2022-12-07T17:36:20;3.70;99.90
8715;DHT22;4394;51.208;8.904;2022-12-07T17:39:11;3.70;99.90
8715;DHT22;4394;51.208;8.904;2022-12-07T17:42:00;3.70;99.90
8715;DHT22;4394;51.208;8.904;2022-12-07T17:45:06;3.70;99.90
8715;DHT22;4394;51.208;8.904;2022-12-07T17:47:55;3.60;99.90
8715;DHT22;4394;51.208;8.904;2022-12-07T17:50:43;3.60;99.90
8715;DHT22;4394;51.208;8.904;2022-12-07T17:53:49;3.60;99.90
8715;DHT22;4394;51.208;8.904;2022-12-07T17:56:39;3.60;99.90
8715;DHT22;4394;51.208;8.904;2022-12-07T17:59:31;3.50;99.90
8715;DHT22;4394;51.208;8.904;2022-12-07T18:02:19;3.50;99.90
8715;DHT22;4394;51.208;8.904;2022-12-07T18:05:08;3.40;99.90
8715;DHT22;4394;51.208;8.904;2022-12-07T18:07:58;3.40;99.90
8715;DHT22;4394;51.208;8.904;2022-12-07T18:10:46;3.40;99.90
8715;DHT22;4394;51.208;8.904;2022-12-07T18:13:36;3.40;99.90
8715;DHT22;4394;51.208;8.904;2022-12-07T18:16:25;3.30;99.90
8715;DHT22;4394;51.208;8.904;2022-12-07T18:19:17;3.40;99.90
8715;DHT22;4394;51.208;8.904;2022-12-07T18:22:06;3.40;99.90
8715;DHT22;4394;51.208;8.904;2022-12-07T18:24:55;3.40;99.90
8715;DHT22;4394;51.208;8.904;2022-12-07T18:27:43;3.40;99.90
8715;DHT22;4394;51.208;8.904;2022-12-07T18:30:34;3.40;99.90
8715;DHT22;4394;51.208;8.904;2022-12-07T18:33:43;3.40;99.90
8715;DHT22;4394;51.208;8.904;2022-12-07T18:36:32;3.40;99.90
8715;DHT22;4394;51.208;8.904;2022-12-07T18:39:20;3.40;99.90
8715;DHT22;4394;51.208;8.904;2022-12-07T18:42:19;3.40;99.90
8715;DHT22;4394;51.208;8.904;2022-12-07T18:45:10;3.40;99.90
8715;DHT22;4394;51.208;8.904;2022-12-07T18:48:02;3.40;99.90
8715;DHT22;4394;51.208;8.904;2022-12-07T18:50:58;3.40;99.90
8715;DHT22;4394;51.208;8.904;2022-12-07T18:53:48;3.40;99.90
8715;DHT22;4394;51.208;8.904;2022-12-07T18:56:38;3.50;99.90
8715;DHT22;4394;51.208;8.904;2022-12-07T18:59:26;3.50;99.90
8715;DHT22;4394;51.208;8.904;2022-12-07T19:02:33;3.50;99.90
8715;DHT22;4394;51.208;8.904;2022-12-07T19:05:23;3.50;99.90
8715;DHT22;4394;51.208;8.904;2022-12-07T19:08:11;3.50;99.90
8715;DHT22;4394;51.208;8.904;2022-12-07T19:11:01;3.50;99.90
8715;DHT22;4394;51.208;8.904;2022-12-07T19:14:10;3.50;99.90
8715;DHT22;4394;51.208;8.904;2022-12-07T19:17:00;3.50;99.90
8715;DHT22;4394;51.208;8.904;2022-12-07T19:19:50;3.50;99.90
8715;DHT22;4394;51.208;8.904;2022-12-07T19:22:40;3.50;99.90
8715;DHT22;4394;51.208;8.904;2022-12-07T19:25:28;3.50;99.90
8715;DHT22;4394;51.208;8.904;2022-12-07T19:28:17;3.50;99.90